Pelican State — WDE4433 — position and weather

sailwx.info

Track history (hours):
 
Tides and Currents Weather Stations Pressure Air Temp Water Temp Dewpoint Dewpoint Depression Visibility Wind Speed Wind Dir Waves Ship Positions

Pelican State

Owner: Crowley Petroleum Serives, Jacksonville, FL. More information available from US FCC via Universal Licensing System and Coast Guard Vessel Documentation Center.

Last reported at 2015-Dec-17 21:33 UTC. Time now 2016-Feb-11 21:11 UTC.
Position N 25°26' W 079°60'.
Warning: this ship's position is 55 days out of date.

Length 183 m; draft 8.3 m.

Type: Tanker. MMSI: 367353110.

Date/timePositionNaut miles runAvg speedWind from/ knotsBaromVisibWave heightAir tempDewpointWater temp
2015-Dec-17 21:33N 25°26' W 079°60'1212.4
2015-Dec-17 20:33N 25°38' W 079°59'1212.4
2015-Dec-17 19:33N 25°50' W 079°58'1212.4
2015-Dec-17 18:33N 26°03' W 079°58'1212.1
2015-Dec-17 17:33N 26°15' W 079°57'1512.0
2015-Dec-17 16:20N 26°29' W 079°56'912.0
2015-Dec-17 15:33N 26°39' W 079°56'1212.1
2015-Dec-17 14:33N 26°51' W 079°55'1211.7
2015-Dec-17 13:33N 27°02' W 079°55'  
2015-Dec-15 00:17N 38°34' W 074°50'7 9.4
2015-Dec-14 23:33N 38°40' W 074°55'1010.4
2015-Dec-14 22:34N 38°48' W 075°03'1211.6
2015-Dec-14 21:34N 38°59' W 075°08'1515.0
2015-Dec-14 20:34N 39°12' W 075°17'1515.2
2015-Dec-14 19:34N 39°24' W 075°30'1211.7
2015-Dec-14 18:33N 39°35' W 075°34'9 8.9
2015-Dec-14 17:33N 39°44' W 075°30'7 6.6
2015-Dec-14 16:33N 39°49' W 075°24'0 0.0
2015-Dec-14 15:33N 39°49' W 075°24'0 0.0
2015-Dec-14 14:33N 39°49' W 075°24'0 0.0
2015-Dec-14 13:33N 39°49' W 075°24'0 0.0
2015-Dec-14 12:33N 39°49' W 075°24'0 0.0
2015-Dec-14 11:33N 39°49' W 075°24'0 0.0
2015-Dec-14 10:33N 39°49' W 075°24'0 0.0
2015-Dec-14 09:33N 39°49' W 075°24'0 0.0
2015-Dec-14 08:33N 39°49' W 075°24'0 0.0
2015-Dec-14 07:33N 39°49' W 075°24'0 0.0
2015-Dec-14 06:33N 39°49' W 075°24'0 0.0
2015-Dec-14 05:33N 39°49' W 075°24'0 0.0
2015-Dec-14 04:33N 39°49' W 075°24'0 0.0
2015-Dec-14 03:33N 39°49' W 075°24'0 0.0
2015-Dec-14 02:33N 39°49' W 075°24'0 0.0
2015-Dec-14 01:33N 39°49' W 075°24'0 0.0
2015-Dec-14 00:33N 39°49' W 075°24'0 0.0
2015-Dec-13 23:33N 39°49' W 075°24'0 0.0
2015-Dec-13 22:30N 39°49' W 075°24'0 0.0
2015-Dec-13 21:33N 39°49' W 075°24'0 0.4
2015-Dec-13 20:34N 39°48' W 075°24'0 0.1
2015-Dec-13 19:31N 39°48' W 075°24'0 0.0
2015-Dec-13 18:31N 39°48' W 075°24'0 0.0
2015-Dec-13 17:31N 39°48' W 075°24'1 0.6
2015-Dec-13 16:33N 39°48' W 075°25'1312.6
2015-Dec-13 15:33N 39°38' W 075°34'1313.1
2015-Dec-13 14:33N 39°25' W 075°31'1615.5
2015-Dec-13 13:33N 39°13' W 075°18'1514.8
2015-Dec-13 12:34N 39°00' W 075°09'3 3.4
2015-Dec-13 11:33N 38°59' W 075°12'0 0.1
2015-Dec-13 10:33N 38°59' W 075°12'0 0.1
2015-Dec-13 09:33N 38°59' W 075°13'0 0.0
2015-Dec-13 08:33N 38°59' W 075°13'0 0.0
2015-Dec-13 07:33N 38°59' W 075°13'0 0.0
2015-Dec-13 06:33N 38°59' W 075°13'0 0.0
2015-Dec-13 05:33N 38°59' W 075°12'0 0.1
2015-Dec-13 04:33N 38°59' W 075°13'0 0.1
2015-Dec-13 03:33N 38°59' W 075°13'0 0.0
2015-Dec-13 02:33N 38°59' W 075°13'0 0.0
2015-Dec-13 01:33N 38°59' W 075°13'0 0.0
2015-Dec-13 00:27N 38°59' W 075°13'0 0.0
2015-Dec-12 23:33N 38°59' W 075°13'0 0.2
2015-Dec-12 22:33N 38°59' W 075°13'0 0.0
2015-Dec-12 21:33N 38°59' W 075°13'0 0.0
2015-Dec-12 20:33N 38°59' W 075°13'0 0.0
2015-Dec-12 19:33N 38°59' W 075°12'0 0.0
2015-Dec-12 18:33N 38°59' W 075°13'0 0.0
2015-Dec-12 17:33N 38°59' W 075°13'0 0.0
2015-Dec-12 16:33N 38°59' W 075°12'0 0.2
2015-Dec-12 15:33N 38°59' W 075°13'0 0.0
2015-Dec-12 14:33N 38°59' W 075°13'0 0.0
2015-Dec-12 13:33N 38°59' W 075°13'0 0.0
2015-Dec-12 12:33N 38°59' W 075°13'0 0.0
2015-Dec-12 11:33N 38°59' W 075°13'0 0.2
2015-Dec-12 10:33N 38°59' W 075°13'0 0.0
2015-Dec-12 09:33N 38°59' W 075°13'0 0.0
2015-Dec-12 08:33N 38°59' W 075°13'0 0.0
2015-Dec-12 07:33N 38°59' W 075°12'0 0.0
2015-Dec-12 06:33N 38°59' W 075°12'0 0.0
2015-Dec-12 05:33N 38°59' W 075°12'0 0.0
2015-Dec-12 04:33N 38°59' W 075°12'0 0.2
2015-Dec-12 03:33N 38°59' W 075°13'0 0.0
2015-Dec-12 02:33N 38°59' W 075°13'0 0.1
2015-Dec-12 01:33N 38°59' W 075°13'0 0.0
2015-Dec-12 00:33N 38°59' W 075°13'3 3.3
2015-Dec-11 23:33N 38°56' W 075°11'1211.9
2015-Dec-11 22:33N 38°47' W 075°01'10 9.8
2015-Dec-11 21:33N 38°40' W 074°52'10 9.9
2015-Dec-11 20:32N 38°32' W 074°44'9 8.5
2015-Dec-11 19:32N 38°24' W 074°39'1313.2
2015-Dec-11 18:32N 38°12' W 074°34'73515.0
2015-Dec-09 17:33N 26°43' W 079°41'1717.1
2015-Dec-09 16:34N 26°26' W 079°43'1717.0
2015-Dec-09 15:34N 26°10' W 079°46'1717.2
2015-Dec-09 14:33N 25°53' W 079°47'1817.6
2015-Dec-09 13:34N 25°35' W 079°52'1917.1
2015-Dec-09 12:29N 25°17' W 079°56'  
Track history (hours):
 
Tides and Currents Weather Stations Pressure Air Temp Water Temp Dewpoint Dewpoint Depression Visibility Wind Speed Wind Dir Waves Ship Positions

Pelican State

Owner: Crowley Petroleum Serives, Jacksonville, FL. More information available from US FCC via Universal Licensing System and Coast Guard Vessel Documentation Center.

Last reported at 2015-Dec-17 21:33 UTC. Time now 2016-Feb-11 21:11 UTC.
Position N 25°26' W 079°60'.
Warning: this ship's position is 55 days out of date.

Length 183 m; draft 8.3 m.

Type: Tanker. MMSI: 367353110.

Date/timePositionNaut miles runAvg speedWind from/ knotsBaromVisibWave heightAir tempDewpointWater temp
2015-Dec-17 21:33N 25°26' W 079°60'1212.4
2015-Dec-17 20:33N 25°38' W 079°59'1212.4
2015-Dec-17 19:33N 25°50' W 079°58'1212.4
2015-Dec-17 18:33N 26°03' W 079°58'1212.1
2015-Dec-17 17:33N 26°15' W 079°57'1512.0
2015-Dec-17 16:20N 26°29' W 079°56'912.0
2015-Dec-17 15:33N 26°39' W 079°56'1212.1
2015-Dec-17 14:33N 26°51' W 079°55'1211.7
2015-Dec-17 13:33N 27°02' W 079°55'  
2015-Dec-15 00:17N 38°34' W 074°50'7 9.4
2015-Dec-14 23:33N 38°40' W 074°55'1010.4
2015-Dec-14 22:34N 38°48' W 075°03'1211.6
2015-Dec-14 21:34N 38°59' W 075°08'1515.0
2015-Dec-14 20:34N 39°12' W 075°17'1515.2
2015-Dec-14 19:34N 39°24' W 075°30'1211.7
2015-Dec-14 18:33N 39°35' W 075°34'9 8.9
2015-Dec-14 17:33N 39°44' W 075°30'7 6.6
2015-Dec-14 16:33N 39°49' W 075°24'0 0.0
2015-Dec-14 15:33N 39°49' W 075°24'0 0.0
2015-Dec-14 14:33N 39°49' W 075°24'0 0.0
2015-Dec-14 13:33N 39°49' W 075°24'0 0.0
2015-Dec-14 12:33N 39°49' W 075°24'0 0.0
2015-Dec-14 11:33N 39°49' W 075°24'0 0.0
2015-Dec-14 10:33N 39°49' W 075°24'0 0.0
2015-Dec-14 09:33N 39°49' W 075°24'0 0.0
2015-Dec-14 08:33N 39°49' W 075°24'0 0.0
2015-Dec-14 07:33N 39°49' W 075°24'0 0.0
2015-Dec-14 06:33N 39°49' W 075°24'0 0.0
2015-Dec-14 05:33N 39°49' W 075°24'0 0.0
2015-Dec-14 04:33N 39°49' W 075°24'0 0.0
2015-Dec-14 03:33N 39°49' W 075°24'0 0.0
2015-Dec-14 02:33N 39°49' W 075°24'0 0.0
2015-Dec-14 01:33N 39°49' W 075°24'0 0.0
2015-Dec-14 00:33N 39°49' W 075°24'0 0.0
2015-Dec-13 23:33N 39°49' W 075°24'0 0.0
2015-Dec-13 22:30N 39°49' W 075°24'0 0.0
2015-Dec-13 21:33N 39°49' W 075°24'0 0.4
2015-Dec-13 20:34N 39°48' W 075°24'0 0.1
2015-Dec-13 19:31N 39°48' W 075°24'0 0.0
2015-Dec-13 18:31N 39°48' W 075°24'0 0.0
2015-Dec-13 17:31N 39°48' W 075°24'1 0.6
2015-Dec-13 16:33N 39°48' W 075°25'1312.6
2015-Dec-13 15:33N 39°38' W 075°34'1313.1
2015-Dec-13 14:33N 39°25' W 075°31'1615.5
2015-Dec-13 13:33N 39°13' W 075°18'1514.8
2015-Dec-13 12:34N 39°00' W 075°09'3 3.4
2015-Dec-13 11:33N 38°59' W 075°12'0 0.1
2015-Dec-13 10:33N 38°59' W 075°12'0 0.1
2015-Dec-13 09:33N 38°59' W 075°13'0 0.0
2015-Dec-13 08:33N 38°59' W 075°13'0 0.0
2015-Dec-13 07:33N 38°59' W 075°13'0 0.0
2015-Dec-13 06:33N 38°59' W 075°13'0 0.0
2015-Dec-13 05:33N 38°59' W 075°12'0 0.1
2015-Dec-13 04:33N 38°59' W 075°13'0 0.1
2015-Dec-13 03:33N 38°59' W 075°13'0 0.0
2015-Dec-13 02:33N 38°59' W 075°13'0 0.0
2015-Dec-13 01:33N 38°59' W 075°13'0 0.0
2015-Dec-13 00:27N 38°59' W 075°13'0 0.0
2015-Dec-12 23:33N 38°59' W 075°13'0 0.2
2015-Dec-12 22:33N 38°59' W 075°13'0 0.0
2015-Dec-12 21:33N 38°59' W 075°13'0 0.0
2015-Dec-12 20:33N 38°59' W 075°13'0 0.0
2015-Dec-12 19:33N 38°59' W 075°12'0 0.0
2015-Dec-12 18:33N 38°59' W 075°13'0 0.0
2015-Dec-12 17:33N 38°59' W 075°13'0 0.0
2015-Dec-12 16:33N 38°59' W 075°12'0 0.2
2015-Dec-12 15:33N 38°59' W 075°13'0 0.0
2015-Dec-12 14:33N 38°59' W 075°13'0 0.0
2015-Dec-12 13:33N 38°59' W 075°13'0 0.0
2015-Dec-12 12:33N 38°59' W 075°13'0 0.0
2015-Dec-12 11:33N 38°59' W 075°13'0 0.2
2015-Dec-12 10:33N 38°59' W 075°13'0 0.0
2015-Dec-12 09:33N 38°59' W 075°13'0 0.0
2015-Dec-12 08:33N 38°59' W 075°13'0 0.0
2015-Dec-12 07:33N 38°59' W 075°12'0 0.0
2015-Dec-12 06:33N 38°59' W 075°12'0 0.0
2015-Dec-12 05:33N 38°59' W 075°12'0 0.0
2015-Dec-12 04:33N 38°59' W 075°12'0 0.2
2015-Dec-12 03:33N 38°59' W 075°13'0 0.0
2015-Dec-12 02:33N 38°59' W 075°13'0 0.1
2015-Dec-12 01:33N 38°59' W 075°13'0 0.0
2015-Dec-12 00:33N 38°59' W 075°13'3 3.3
2015-Dec-11 23:33N 38°56' W 075°11'1211.9
2015-Dec-11 22:33N 38°47' W 075°01'10 9.8
2015-Dec-11 21:33N 38°40' W 074°52'10 9.9
2015-Dec-11 20:32N 38°32' W 074°44'9 8.5
2015-Dec-11 19:32N 38°24' W 074°39'1313.2
2015-Dec-11 18:32N 38°12' W 074°34'73515.0
2015-Dec-09 17:33N 26°43' W 079°41'1717.1
2015-Dec-09 16:34N 26°26' W 079°43'1717.0
2015-Dec-09 15:34N 26°10' W 079°46'1717.2
2015-Dec-09 14:33N 25°53' W 079°47'1817.6
2015-Dec-09 13:34N 25°35' W 079°52'1917.1
2015-Dec-09 12:29N 25°17' W 079°56'  

Dump ship's entire track history